Airport View

Enter AWOS ICAO identifier for current METAR.

ex. KFNL

KD55 300420Z AUTO 19008KT 10SM OVC007 M01/M00 A3005 RMK AO2

30 Oct 2020 04:19

Frequency: 118.225

Phone: 701-256-2121

Other Area AWOS: K96D - CXMD - K2C8 - CWPO

TAF AMD KDVL 300231Z 3003/3024 16008KT 5SM -SN BR BKN006 FM300500 16006KT P6SM OVC005 FM301300 18007KT P6SM OVC006 FM302100 17017KT P6SM OVC012